createdAt,value
2023-02-21T00:00:11.298Z,69.23
2023-02-21T00:03:21.796Z,69.19
2023-02-21T00:06:08.925Z,69.36
2023-02-21T00:08:56.184Z,69.29
2023-02-21T00:11:43.133Z,69.42
2023-02-21T00:14:29.827Z,69.16
2023-02-21T00:17:16.512Z,69.31
2023-02-21T00:20:03.381Z,69.36
2023-02-21T00:22:50.268Z,69.32
2023-02-21T00:25:36.773Z,69.34
2023-02-21T00:28:23.514Z,69.18
2023-02-21T00:31:10.153Z,69.13
2023-02-21T00:33:57.391Z,69.07
2023-02-21T00:36:44.251Z,69.21
2023-02-21T00:39:30.869Z,69.11
2023-02-21T00:42:17.750Z,69.10
2023-02-21T00:45:04.564Z,68.84
2023-02-21T00:47:51.175Z,69.09
2023-02-21T00:50:38.108Z,69.24
2023-02-21T00:53:24.959Z,69.16
2023-02-21T00:56:11.675Z,69.16
2023-02-21T00:58:58.410Z,68.74
2023-02-21T01:01:45.527Z,69.11
2023-02-21T01:04:32.412Z,68.86
2023-02-21T01:07:19.208Z,68.86
2023-02-21T01:10:06.022Z,68.91
2023-02-21T01:12:52.917Z,68.84
2023-02-21T01:15:40.064Z,69.06
2023-02-21T01:18:26.963Z,68.76
2023-02-21T01:21:14.121Z,69.05
2023-02-21T01:24:01.385Z,69.06
2023-02-21T01:26:48.722Z,69.01
2023-02-21T01:29:37.668Z,69.03
2023-02-21T01:32:24.587Z,68.94
2023-02-21T01:35:11.405Z,69.01
2023-02-21T01:38:00.669Z,68.88
2023-02-21T01:40:47.315Z,69.20
2023-02-21T01:43:44.126Z,69.16
2023-02-21T01:46:38.984Z,69.25
2023-02-21T01:49:35.812Z,69.41
2023-02-21T01:52:23.982Z,69.41
2023-02-21T01:55:13.809Z,69.02
2023-02-21T01:58:04.797Z,69.24
2023-02-21T02:00:52.196Z,69.10
2023-02-21T02:03:40.534Z,68.96
2023-02-21T02:06:33.800Z,69.00
2023-02-21T02:09:40.915Z,68.67
2023-02-21T02:12:35.952Z,68.59
2023-02-21T02:15:22.511Z,68.14
2023-02-21T02:18:09.177Z,67.77
2023-02-21T02:21:15.420Z,67.62
2023-02-21T02:24:15.574Z,67.22
2023-02-21T02:27:11.707Z,66.98
2023-02-21T02:30:11.729Z,66.82
2023-02-21T02:33:22.184Z,66.77
2023-02-21T02:36:13.088Z,66.73
2023-02-21T02:39:11.586Z,66.56
2023-02-21T02:41:56.568Z,66.57
2023-02-21T02:44:40.358Z,66.53
2023-02-21T02:47:15.059Z,66.48
2023-02-21T02:49:46.287Z,66.36
2023-02-21T02:52:14.383Z,66.42
2023-02-21T02:54:42.494Z,66.41
2023-02-21T02:57:13.368Z,66.45
2023-02-21T02:59:46.989Z,66.43
2023-02-21T03:02:43.982Z,66.36
2023-02-21T03:05:21.137Z,66.32
2023-02-21T03:08:09.004Z,66.29
2023-02-21T03:11:06.309Z,66.03
2023-02-21T03:14:06.288Z,66.18
2023-02-21T03:17:00.449Z,66.14
2023-02-21T03:19:39.116Z,66.12
2023-02-21T03:22:16.186Z,66.38
2023-02-21T03:24:48.571Z,66.30
2023-02-21T03:27:20.114Z,66.47
2023-02-21T03:30:03.148Z,66.64
2023-02-21T03:32:51.864Z,66.67
2023-02-21T03:35:22.206Z,66.51
2023-02-21T03:37:53.543Z,66.86
2023-02-21T03:40:33.674Z,66.91
2023-02-21T03:43:07.392Z,66.89
2023-02-21T03:45:45.413Z,66.84
2023-02-21T03:48:31.080Z,67.03
2023-02-21T03:51:03.720Z,66.90
2023-02-21T03:53:36.256Z,67.00
2023-02-21T03:56:05.506Z,67.06
2023-02-21T03:58:47.995Z,67.07
2023-02-21T04:01:16.803Z,67.20
2023-02-21T04:03:45.201Z,67.33
2023-02-21T04:06:13.384Z,67.50
2023-02-21T04:08:42.025Z,67.59
2023-02-21T04:11:10.318Z,67.50
2023-02-21T04:13:38.463Z,66.86
2023-02-21T04:16:07.000Z,67.08
2023-02-21T04:18:37.869Z,67.13
2023-02-21T04:21:08.367Z,67.10
2023-02-21T04:23:36.788Z,67.15
2023-02-21T04:26:05.914Z,66.98
2023-02-21T04:28:40.772Z,66.77
2023-02-21T04:31:09.239Z,66.78
2023-02-21T04:33:37.657Z,66.86
2023-02-21T04:36:06.428Z,66.78
2023-02-21T04:38:41.516Z,66.78
2023-02-21T04:41:09.683Z,66.79
2023-02-21T04:43:38.496Z,66.66
2023-02-21T04:46:07.307Z,66.66
2023-02-21T04:48:35.489Z,66.59
2023-02-21T04:51:15.105Z,66.41
2023-02-21T04:53:46.839Z,66.53
2023-02-21T04:56:15.966Z,66.41
2023-02-21T04:58:45.606Z,66.27
2023-02-21T05:01:16.537Z,66.41
2023-02-21T05:03:45.207Z,66.16
2023-02-21T05:06:25.404Z,65.88
2023-02-21T05:08:53.596Z,65.85
2023-02-21T05:11:23.151Z,65.83
2023-02-21T05:13:51.616Z,65.68
2023-02-21T05:16:20.666Z,65.66
2023-02-21T05:18:49.401Z,65.61
2023-02-21T05:21:19.338Z,65.30
2023-02-21T05:23:56.857Z,65.26
2023-02-21T05:26:31.484Z,64.80
2023-02-21T05:28:59.876Z,64.60
2023-02-21T05:31:28.614Z,64.43
2023-02-21T05:33:58.077Z,64.11
2023-02-21T05:36:27.014Z,63.98
2023-02-21T05:38:56.216Z,64.04
2023-02-21T05:41:24.651Z,63.98
2023-02-21T05:43:53.768Z,63.86
2023-02-21T05:46:29.449Z,63.90
2023-02-21T05:48:59.877Z,64.08
2023-02-21T05:51:34.357Z,64.13
2023-02-21T05:54:02.557Z,64.36
2023-02-21T05:56:31.065Z,64.16
2023-02-21T05:58:59.190Z,63.57
2023-02-21T06:01:27.334Z,63.20
2023-02-21T06:03:55.470Z,62.61
2023-02-21T06:06:23.734Z,61.98
2023-02-21T06:08:52.064Z,61.73
2023-02-21T06:11:26.242Z,61.57
2023-02-21T06:13:57.198Z,61.53
2023-02-21T06:16:26.498Z,61.50
2023-02-21T06:18:57.036Z,61.47
2023-02-21T06:21:25.193Z,61.81
2023-02-21T06:23:53.468Z,61.82
2023-02-21T06:26:23.032Z,61.65
2023-02-21T06:28:51.660Z,61.58
2023-02-21T06:31:21.344Z,61.73
2023-02-21T06:33:50.835Z,61.36
2023-02-21T06:36:23.960Z,61.46
2023-02-21T06:38:55.100Z,61.40
2023-02-21T06:41:28.405Z,61.23
2023-02-21T06:43:58.399Z,61.20
2023-02-21T06:46:30.117Z,60.98
2023-02-21T06:48:58.942Z,60.95
2023-02-21T06:51:30.138Z,61.01
2023-02-21T06:53:58.647Z,61.09
2023-02-21T06:56:27.271Z,60.66
2023-02-21T06:58:55.627Z,60.74
2023-02-21T07:01:28.058Z,60.33
2023-02-21T07:03:58.344Z,60.53
2023-02-21T07:06:29.448Z,60.20
2023-02-21T07:08:57.896Z,59.80
2023-02-21T07:11:26.042Z,59.60
2023-02-21T07:13:56.932Z,59.52
2023-02-21T07:16:26.806Z,59.49
2023-02-21T07:18:55.155Z,59.30
2023-02-21T07:21:23.642Z,59.51
2023-02-21T07:23:51.714Z,59.22
2023-02-21T07:26:20.276Z,59.10
2023-02-21T07:28:49.541Z,58.76
2023-02-21T07:31:19.598Z,59.00
2023-02-21T07:33:48.209Z,58.74
2023-02-21T07:36:16.922Z,58.92
2023-02-21T07:38:45.086Z,59.09
2023-02-21T07:41:15.816Z,59.19
2023-02-21T07:43:44.296Z,59.10
2023-02-21T07:46:15.087Z,58.82
2023-02-21T07:48:43.374Z,58.38
2023-02-21T07:51:11.579Z,58.42
2023-02-21T07:53:40.861Z,58.36
2023-02-21T07:56:09.464Z,58.48
2023-02-21T07:58:37.724Z,58.60
2023-02-21T08:01:07.140Z,58.56
2023-02-21T08:03:35.833Z,58.46
2023-02-21T08:06:05.161Z,58.24
2023-02-21T08:08:33.412Z,58.25
2023-02-21T08:11:02.014Z,58.20
2023-02-21T08:13:30.159Z,58.05
2023-02-21T08:15:58.313Z,58.17
2023-02-21T08:18:26.576Z,57.63
2023-02-21T08:20:57.043Z,57.76
2023-02-21T08:23:25.213Z,57.48
2023-02-21T08:25:53.379Z,57.50
2023-02-21T08:28:21.522Z,57.32
2023-02-21T08:30:49.692Z,57.47
2023-02-21T08:33:17.810Z,57.63
2023-02-21T08:35:46.253Z,57.61
2023-02-21T08:38:14.549Z,57.78
2023-02-21T08:40:42.704Z,57.88
2023-02-21T08:43:11.187Z,58.15
2023-02-21T08:45:39.324Z,58.06
2023-02-21T08:48:07.439Z,58.14
2023-02-21T08:50:35.584Z,58.03
2023-02-21T08:53:03.802Z,58.32
2023-02-21T08:55:31.883Z,58.19
2023-02-21T08:58:00.040Z,58.02
2023-02-21T09:00:28.501Z,57.86
2023-02-21T09:03:02.292Z,57.96
2023-02-21T09:05:32.031Z,58.08
2023-02-21T09:08:02.001Z,58.07
2023-02-21T09:10:36.048Z,58.18
2023-02-21T09:13:05.356Z,57.87
2023-02-21T09:15:34.042Z,57.91
2023-02-21T09:18:02.205Z,58.17
2023-02-21T09:20:30.336Z,57.88
2023-02-21T09:22:58.465Z,57.79
2023-02-21T09:25:27.012Z,57.68
2023-02-21T09:27:55.277Z,57.00
2023-02-21T09:30:27.134Z,57.24
2023-02-21T09:32:58.358Z,56.94
2023-02-21T09:35:26.507Z,56.57
2023-02-21T09:37:54.608Z,56.09
2023-02-21T09:40:51.574Z,55.97
2023-02-21T09:43:31.750Z,56.03
2023-02-21T09:46:07.569Z,55.88
2023-02-21T09:48:35.743Z,55.75
2023-02-21T09:51:09.086Z,55.96
2023-02-21T09:53:42.060Z,56.04
2023-02-21T09:56:34.210Z,55.96
2023-02-21T09:59:02.417Z,55.97
2023-02-21T10:02:16.186Z,55.93
2023-02-21T10:05:30.579Z,55.55
2023-02-21T10:08:15.063Z,55.34
2023-02-21T10:10:56.668Z,55.01
2023-02-21T10:13:53.077Z,55.05
2023-02-21T10:16:32.319Z,54.88
2023-02-21T10:19:31.396Z,54.55
2023-02-21T10:22:02.675Z,54.44
2023-02-21T10:24:31.211Z,54.45
2023-02-21T10:26:59.900Z,54.29
2023-02-21T10:29:47.162Z,54.11
2023-02-21T10:32:15.516Z,54.05
2023-02-21T10:34:47.466Z,53.91
2023-02-21T10:37:24.190Z,54.36
2023-02-21T10:39:59.229Z,54.36
2023-02-21T10:42:50.462Z,54.22
2023-02-21T10:45:20.167Z,53.75
2023-02-21T10:48:03.098Z,53.31
2023-02-21T10:51:04.574Z,53.66
2023-02-21T10:53:42.905Z,53.76
2023-02-21T10:56:20.005Z,53.87
2023-02-21T10:59:28.401Z,54.03
2023-02-21T11:01:58.128Z,53.34
2023-02-21T11:04:34.439Z,53.29
2023-02-21T11:07:13.338Z,53.29
2023-02-21T11:09:51.169Z,53.58
2023-02-21T11:12:31.166Z,53.65
2023-02-21T11:14:59.294Z,53.75
2023-02-21T11:17:29.025Z,53.54
2023-02-21T11:20:19.056Z,53.69
2023-02-21T11:22:49.878Z,53.69
2023-02-21T11:25:31.837Z,53.56
2023-02-21T11:28:06.649Z,53.16
2023-02-21T11:30:39.579Z,53.42
2023-02-21T11:33:09.148Z,53.62
2023-02-21T11:35:47.541Z,53.18
2023-02-21T11:38:36.000Z,53.30
2023-02-21T11:41:21.109Z,53.28
2023-02-21T11:43:55.362Z,53.13
2023-02-21T11:46:45.754Z,53.27
2023-02-21T11:49:32.718Z,53.29
2023-02-21T11:52:09.923Z,53.28
2023-02-21T11:54:39.977Z,53.19
2023-02-21T11:57:29.377Z,53.31
2023-02-21T12:00:41.065Z,53.52
2023-02-21T12:03:43.454Z,53.67
2023-02-21T12:06:26.945Z,53.41
2023-02-21T12:09:22.849Z,53.23
2023-02-21T12:12:11.653Z,53.22
2023-02-21T12:15:17.486Z,53.40
2023-02-21T12:18:22.924Z,53.67
2023-02-21T12:21:47.168Z,53.53
2023-02-21T12:24:30.938Z,53.84
2023-02-21T12:27:30.147Z,54.10
2023-02-21T12:30:10.657Z,54.17
2023-02-21T12:32:59.288Z,54.11
2023-02-21T12:36:17.254Z,54.42
2023-02-21T12:39:14.368Z,54.47
2023-02-21T12:42:22.551Z,54.47
2023-02-21T12:45:07.392Z,54.56
2023-02-21T12:48:12.551Z,54.54
2023-02-21T12:50:45.315Z,54.64
2023-02-21T12:53:24.376Z,54.75
2023-02-21T12:56:15.459Z,54.86
2023-02-21T12:59:14.027Z,54.86
2023-02-21T13:01:49.778Z,54.76
2023-02-21T13:05:01.577Z,55.15
2023-02-21T13:07:38.025Z,54.94
2023-02-21T13:10:28.117Z,55.15
2023-02-21T13:13:18.260Z,55.28
2023-02-21T13:15:49.186Z,55.47
2023-02-21T13:18:26.365Z,55.49
2023-02-21T13:20:58.922Z,55.56
2023-02-21T13:24:23.743Z,55.67
2023-02-21T13:27:41.918Z,55.98
2023-02-21T13:30:21.797Z,56.09
2023-02-21T13:32:54.338Z,56.18
2023-02-21T13:35:38.743Z,56.33
2023-02-21T13:38:11.214Z,56.49
2023-02-21T13:41:10.022Z,56.62
2023-02-21T13:43:48.023Z,56.71
2023-02-21T13:46:29.932Z,56.78
2023-02-21T13:49:56.208Z,56.79
2023-02-21T13:52:32.780Z,56.89
2023-02-21T13:55:15.805Z,56.99
2023-02-21T13:57:57.590Z,56.88
2023-02-21T14:00:25.755Z,56.86
2023-02-21T14:03:03.023Z,56.83
2023-02-21T14:05:47.205Z,56.92
2023-02-21T14:08:33.747Z,56.98
2023-02-21T14:11:05.047Z,56.92
2023-02-21T14:13:39.773Z,56.84
2023-02-21T14:16:07.906Z,56.97
2023-02-21T14:28:56.677Z,56.85
2023-02-21T14:31:56.402Z,56.83
2023-02-21T14:34:52.073Z,56.79
2023-02-21T14:37:41.059Z,56.87
2023-02-21T14:40:12.197Z,56.61
2023-02-21T14:43:05.330Z,56.65
2023-02-21T14:45:50.095Z,56.68
2023-02-21T14:48:53.238Z,56.67
2023-02-21T14:51:50.779Z,56.72
2023-02-21T14:54:37.435Z,56.65
2023-02-21T14:57:34.981Z,56.71
2023-02-21T15:00:50.600Z,56.54
2023-02-21T15:03:29.828Z,56.41
2023-02-21T15:06:14.135Z,56.41
2023-02-21T15:08:46.970Z,56.38
2023-02-21T15:11:37.704Z,56.15
2023-02-21T15:14:25.059Z,56.23
2023-02-21T15:17:14.315Z,56.46
2023-02-21T15:19:42.410Z,56.59
2023-02-21T15:22:25.213Z,56.53
2023-02-21T15:25:15.860Z,56.68
2023-02-21T15:27:47.984Z,56.89
2023-02-21T15:30:23.953Z,56.99
2023-02-21T15:33:01.479Z,57.06
2023-02-21T15:35:36.109Z,57.26
2023-02-21T15:38:15.307Z,57.31
2023-02-21T15:40:44.335Z,57.51
2023-02-21T15:43:37.339Z,57.68
2023-02-21T15:46:08.705Z,57.67
2023-02-21T15:48:37.192Z,57.79
2023-02-21T15:51:09.021Z,57.91
2023-02-21T15:53:37.282Z,57.92
2023-02-21T15:56:28.620Z,58.01
2023-02-21T15:59:25.313Z,58.17
2023-02-21T16:02:11.445Z,58.28
2023-02-21T16:04:43.744Z,58.37
2023-02-21T16:07:37.470Z,58.44
2023-02-21T16:10:14.404Z,58.49
2023-02-21T16:12:45.309Z,58.60
2023-02-21T16:15:13.365Z,58.61
2023-02-21T16:17:43.324Z,58.71
2023-02-21T16:20:26.010Z,58.79
2023-02-21T16:23:26.829Z,58.89
2023-02-21T16:26:20.733Z,58.88
2023-02-21T16:28:48.864Z,58.97
2023-02-21T16:31:26.978Z,59.10
2023-02-21T16:33:55.644Z,59.06
2023-02-21T16:36:31.942Z,59.31
2023-02-21T16:39:00.092Z,59.31
2023-02-21T16:41:28.217Z,59.29
2023-02-21T16:43:56.421Z,59.42
2023-02-21T16:46:29.848Z,59.32
2023-02-21T16:48:59.844Z,59.46
2023-02-21T16:51:33.668Z,59.50
2023-02-21T16:54:03.509Z,59.53
2023-02-21T16:56:31.756Z,59.64
2023-02-21T16:58:59.989Z,59.63
2023-02-21T17:01:32.813Z,59.68
2023-02-21T17:04:03.430Z,59.78
2023-02-21T17:06:32.250Z,59.73
2023-02-21T17:09:01.619Z,59.83
2023-02-21T17:11:29.872Z,59.76
2023-02-21T17:13:58.024Z,59.86
2023-02-21T17:16:26.193Z,59.83
2023-02-21T17:18:54.444Z,59.94
2023-02-21T17:21:22.628Z,59.88
2023-02-21T17:23:50.791Z,59.96
2023-02-21T17:26:18.960Z,59.89
2023-02-21T17:28:47.325Z,59.91
2023-02-21T17:31:18.951Z,59.95
2023-02-21T17:33:47.651Z,60.02
2023-02-21T17:36:24.320Z,60.06
2023-02-21T17:38:52.664Z,60.00
2023-02-21T17:41:21.975Z,60.02
2023-02-21T17:43:50.280Z,59.99
2023-02-21T17:46:21.204Z,60.04
2023-02-21T17:48:49.429Z,60.06
2023-02-21T17:51:24.669Z,60.03
2023-02-21T17:53:53.125Z,60.02
2023-02-21T17:56:27.066Z,60.21
2023-02-21T17:58:55.265Z,60.16
2023-02-21T18:01:23.500Z,60.28
2023-02-21T18:03:51.894Z,60.28
2023-02-21T18:06:21.087Z,60.40
2023-02-21T18:08:49.246Z,60.37
2023-02-21T18:11:18.380Z,60.57
2023-02-21T18:13:47.490Z,60.53
2023-02-21T18:16:16.092Z,60.60
2023-02-21T18:18:45.202Z,60.73
2023-02-21T18:21:13.721Z,60.91
2023-02-21T18:23:46.514Z,60.73
2023-02-21T18:26:15.848Z,60.82
2023-02-21T18:28:44.043Z,61.00
2023-02-21T18:31:17.741Z,61.14
2023-02-21T18:33:46.392Z,61.05
2023-02-21T18:36:14.542Z,61.12
2023-02-21T18:38:42.684Z,61.21
2023-02-21T18:41:17.688Z,61.30
2023-02-21T18:43:46.778Z,61.40
2023-02-21T18:46:19.229Z,61.46
2023-02-21T18:48:49.941Z,61.49
2023-02-21T18:51:20.207Z,61.61
2023-02-21T18:53:49.630Z,61.70
2023-02-21T18:56:20.033Z,61.70
2023-02-21T18:58:49.729Z,61.68
2023-02-21T19:01:21.873Z,61.77
2023-02-21T19:03:51.319Z,61.66
2023-02-21T19:06:21.391Z,61.76
2023-02-21T19:08:50.614Z,61.76
2023-02-21T19:11:18.735Z,61.84
2023-02-21T19:13:49.955Z,62.10
2023-02-21T19:16:19.859Z,62.00
2023-02-21T19:18:51.424Z,62.08
2023-02-21T19:21:19.706Z,62.21
2023-02-21T19:23:47.814Z,62.20
2023-02-21T19:26:16.371Z,62.23
2023-02-21T19:28:44.963Z,62.42
2023-02-21T19:31:17.468Z,62.41
2023-02-21T19:33:45.934Z,62.45
2023-02-21T19:36:14.142Z,62.41
2023-02-21T19:38:42.233Z,62.48
2023-02-21T19:41:10.413Z,62.49
2023-02-21T19:43:38.615Z,62.72
2023-02-21T19:46:06.771Z,62.69
2023-02-21T19:48:34.908Z,62.59
2023-02-21T19:51:03.400Z,62.72
2023-02-21T19:53:31.511Z,62.78
2023-02-21T19:55:59.616Z,62.73
2023-02-21T19:58:27.779Z,62.99
2023-02-21T20:00:55.903Z,63.08
2023-02-21T20:03:24.186Z,63.06
2023-02-21T20:05:52.448Z,62.95
2023-02-21T20:08:20.604Z,63.08
2023-02-21T20:10:48.768Z,63.27
2023-02-21T20:13:16.993Z,63.23
2023-02-21T20:15:45.207Z,63.42
2023-02-21T20:18:14.640Z,63.34
2023-02-21T20:20:43.016Z,63.36
2023-02-21T20:23:11.572Z,63.51
2023-02-21T20:25:39.676Z,63.44
2023-02-21T20:28:07.935Z,63.71
2023-02-21T20:30:36.965Z,63.68
2023-02-21T20:33:06.908Z,63.85
2023-02-21T20:35:35.174Z,63.99
2023-02-21T20:38:05.946Z,64.22
2023-02-21T20:40:34.673Z,64.24
2023-02-21T20:43:03.225Z,64.02
2023-02-21T20:45:31.370Z,64.22
2023-02-21T20:47:59.515Z,64.30
2023-02-21T20:50:27.720Z,64.34
2023-02-21T20:52:55.823Z,64.42
2023-02-21T20:55:25.263Z,64.34
2023-02-21T20:57:53.760Z,64.46
2023-02-21T21:00:23.708Z,64.33
2023-02-21T21:02:53.109Z,64.53
2023-02-21T21:05:21.592Z,64.46
2023-02-21T21:07:49.766Z,64.40
2023-02-21T21:10:19.108Z,64.47
2023-02-21T21:12:49.571Z,64.50
2023-02-21T21:15:20.135Z,64.54
2023-02-21T21:17:48.808Z,64.48
2023-02-21T21:20:22.215Z,64.68
2023-02-21T21:22:50.657Z,64.49
2023-02-21T21:25:22.761Z,64.56
2023-02-21T21:27:52.023Z,64.70
2023-02-21T21:30:22.940Z,64.67
2023-02-21T21:32:51.258Z,64.79
2023-02-21T21:35:20.845Z,64.75
2023-02-21T21:37:49.769Z,64.75
2023-02-21T21:40:18.030Z,64.67
2023-02-21T21:42:49.926Z,64.86
2023-02-21T21:45:27.381Z,64.88
2023-02-21T21:48:00.841Z,65.01
2023-02-21T21:50:28.986Z,65.11
2023-02-21T21:52:58.508Z,65.01
2023-02-21T21:55:30.076Z,65.21
2023-02-21T21:57:58.877Z,65.12
2023-02-21T22:00:30.802Z,65.10
2023-02-21T22:03:01.873Z,65.21
2023-02-21T22:05:32.281Z,65.38
2023-02-21T22:08:00.510Z,65.39
2023-02-21T22:10:29.780Z,64.99
2023-02-21T22:13:00.575Z,65.16
2023-02-21T22:15:30.106Z,65.21
2023-02-21T22:18:02.099Z,65.48
2023-02-21T22:20:31.226Z,65.37
2023-02-21T22:22:59.935Z,65.48
2023-02-21T22:25:30.604Z,65.41
2023-02-21T22:28:02.762Z,65.54
2023-02-21T22:30:31.690Z,65.63
2023-02-21T22:32:59.921Z,65.74
2023-02-21T22:35:28.627Z,65.54
2023-02-21T22:38:01.945Z,65.70
2023-02-21T22:40:35.522Z,65.68
2023-02-21T22:43:06.382Z,65.57
2023-02-21T22:45:36.003Z,65.62
2023-02-21T22:48:07.522Z,65.63
2023-02-21T22:50:37.669Z,65.73
2023-02-21T22:53:09.401Z,65.48
2023-02-21T22:55:37.923Z,65.51
2023-02-21T22:58:09.496Z,65.62
2023-02-21T23:00:38.301Z,65.60
2023-02-21T23:03:15.570Z,65.51
2023-02-21T23:05:47.604Z,65.49
2023-02-21T23:08:22.845Z,65.71
2023-02-21T23:10:51.650Z,65.67
2023-02-21T23:13:24.111Z,65.56
2023-02-21T23:15:55.966Z,65.73
2023-02-21T23:18:26.170Z,65.57
2023-02-21T23:20:57.994Z,65.70
2023-02-21T23:23:29.028Z,65.69
2023-02-21T23:25:59.512Z,65.74
2023-02-21T23:28:30.561Z,65.55
2023-02-21T23:30:58.720Z,65.73
2023-02-21T23:33:33.934Z,65.56
2023-02-21T23:36:04.811Z,65.66
2023-02-21T23:38:38.624Z,65.78
2023-02-21T23:41:10.762Z,65.78
2023-02-21T23:43:40.056Z,65.96
2023-02-21T23:46:09.171Z,65.86
2023-02-21T23:48:37.614Z,66.04
2023-02-21T23:51:08.214Z,66.11
2023-02-21T23:53:37.136Z,66.24
2023-02-21T23:56:05.896Z,66.26
2023-02-21T23:58:34.246Z,66.12
